sensor_id;sensor_type;location;lat;lon;timestamp;pressure;altitude;pressure_sealevel;temperature;humidity
78825;BME280;68176;45.554;10.220;2023-04-25T00:00:54;99057.75;;;19.50;41.40
78825;BME280;68176;45.554;10.220;2023-04-25T00:03:24;99052.47;;;19.44;41.60
78825;BME280;68176;45.554;10.220;2023-04-25T00:05:54;99046.28;;;19.37;41.43
78825;BME280;68176;45.554;10.220;2023-04-25T00:08:24;99056.13;;;19.43;41.20
78825;BME280;68176;45.554;10.220;2023-04-25T00:10:54;99036.06;;;19.34;41.22
78825;BME280;68176;45.554;10.220;2023-04-25T00:13:25;99046.28;;;19.37;40.87
78825;BME280;68176;45.554;10.220;2023-04-25T00:15:55;99076.78;;;19.47;41.68
78825;BME280;68176;45.554;10.220;2023-04-25T00:18:24;99062.69;;;19.40;41.56
78825;BME280;68176;45.554;10.220;2023-04-25T00:20:55;99060.84;;;19.41;41.58
78825;BME280;68176;45.554;10.220;2023-04-25T00:23:24;99077.81;;;19.46;41.70
78825;BME280;68176;45.554;10.220;2023-04-25T00:25:54;99069.84;;;19.46;41.24
78825;BME280;68176;45.554;10.220;2023-04-25T00:28:24;99065.34;;;19.47;41.74
78825;BME280;68176;45.554;10.220;2023-04-25T00:30:54;99049.16;;;19.42;41.19
78825;BME280;68176;45.554;10.220;2023-04-25T00:33:24;99036.91;;;19.41;41.61
78825;BME280;68176;45.554;10.220;2023-04-25T00:35:55;99037.31;;;19.38;41.54
78825;BME280;68176;45.554;10.220;2023-04-25T00:38:24;99040.19;;;19.43;41.48
78825;BME280;68176;45.554;10.220;2023-04-25T00:40:54;99025.44;;;19.34;41.86
78825;BME280;68176;45.554;10.220;2023-04-25T00:43:27;99026.88;;;19.30;41.53
78825;BME280;68176;45.554;10.220;2023-04-25T00:45:56;99010.34;;;19.14;41.64
78825;BME280;68176;45.554;10.220;2023-04-25T00:48:24;99037.50;;;19.30;41.75
78825;BME280;68176;45.554;10.220;2023-04-25T00:50:58;99029.13;;;19.19;41.95
78825;BME280;68176;45.554;10.220;2023-04-25T00:53:26;99015.25;;;19.17;41.98
78825;BME280;68176;45.554;10.220;2023-04-25T00:55:55;99042.41;;;19.33;42.00
78825;BME280;68176;45.554;10.220;2023-04-25T00:58:24;99025.47;;;19.21;42.17
78825;BME280;68176;45.554;10.220;2023-04-25T01:00:55;99054.88;;;19.32;42.02
78825;BME280;68176;45.554;10.220;2023-04-25T01:03:24;99031.59;;;19.21;42.29
78825;BME280;68176;45.554;10.220;2023-04-25T01:05:55;99040.41;;;19.28;42.53
78825;BME280;68176;45.554;10.220;2023-04-25T01:08:24;99024.66;;;19.13;42.25
78825;BME280;68176;45.554;10.220;2023-04-25T01:10:55;99030.38;;;19.17;42.07
78825;BME280;68176;45.554;10.220;2023-04-25T01:13:25;99036.91;;;19.28;42.28
78825;BME280;68176;45.554;10.220;2023-04-25T01:15:55;99027.09;;;19.22;42.21
78825;BME280;68176;45.554;10.220;2023-04-25T01:18:25;99035.25;;;19.27;42.51
78825;BME280;68176;45.554;10.220;2023-04-25T01:20:55;99025.06;;;19.24;42.53
78825;BME280;68176;45.554;10.220;2023-04-25T01:23:25;99025.47;;;19.21;42.42
78825;BME280;68176;45.554;10.220;2023-04-25T01:25:55;99042.44;;;19.19;42.52
78825;BME280;68176;45.554;10.220;2023-04-25T01:28:25;99029.38;;;19.11;42.57
78825;BME280;68176;45.554;10.220;2023-04-25T01:30:54;99043.06;;;19.15;42.60
78825;BME280;68176;45.554;10.220;2023-04-25T01:33:24;99044.91;;;19.14;42.66
78825;BME280;68176;45.554;10.220;2023-04-25T01:35:55;99051.22;;;19.13;42.56
78825;BME280;68176;45.554;10.220;2023-04-25T01:38:25;99044.72;;;19.09;42.92
78825;BME280;68176;45.554;10.220;2023-04-25T01:40:55;99034.09;;;19.03;42.87
78825;BME280;68176;45.554;10.220;2023-04-25T01:43:25;99044.31;;;19.12;42.71
78825;BME280;68176;45.554;10.220;2023-04-25T01:45:55;99031.63;;;19.01;42.91
78825;BME280;68176;45.554;10.220;2023-04-25T01:48:25;99035.31;;;19.00;42.60
78825;BME280;68176;45.554;10.220;2023-04-25T01:50:55;99022.22;;;18.92;42.87
78825;BME280;68176;45.554;10.220;2023-04-25T01:53:25;99036.13;;;19.01;42.58
78825;BME280;68176;45.554;10.220;2023-04-25T01:55:55;99033.69;;;18.99;42.88
78825;BME280;68176;45.554;10.220;2023-04-25T01:58:25;99047.16;;;19.04;43.37
78825;BME280;68176;45.554;10.220;2023-04-25T02:00:55;99036.94;;;19.01;42.96
78825;BME280;68176;45.554;10.220;2023-04-25T02:03:25;99019.78;;;18.84;43.05
78825;BME280;68176;45.554;10.220;2023-04-25T02:05:55;99042.25;;;19.01;42.93
78825;BME280;68176;45.554;10.220;2023-04-25T02:08:25;99034.91;;;18.97;43.02
78825;BME280;68176;45.554;10.220;2023-04-25T02:10:55;99051.25;;;19.00;42.89
78825;BME280;68176;45.554;10.220;2023-04-25T02:13:25;99046.34;;;18.97;43.12
78825;BME280;68176;45.554;10.220;2023-04-25T02:15:55;99033.06;;;18.91;43.04
78825;BME280;68176;45.554;10.220;2023-04-25T02:18:25;99027.53;;;18.92;43.19
78825;BME280;68176;45.554;10.220;2023-04-25T02:20:55;99021.81;;;18.89;43.30
78825;BME280;68176;45.554;10.220;2023-04-25T02:23:25;99027.53;;;18.92;43.27
78825;BME280;68176;45.554;10.220;2023-04-25T02:25:56;99034.91;;;18.97;43.36
78825;BME280;68176;45.554;10.220;2023-04-25T02:28:25;99014.47;;;18.84;43.48
78825;BME280;68176;45.554;10.220;2023-04-25T02:30:55;99029.19;;;18.93;43.54
78825;BME280;68176;45.554;10.220;2023-04-25T02:33:25;99021.00;;;18.88;43.29
78825;BME280;68176;45.554;10.220;2023-04-25T02:35:55;99021.00;;;18.88;43.26
78825;BME280;68176;45.554;10.220;2023-04-25T02:38:25;98998.53;;;18.84;43.39
78825;BME280;68176;45.554;10.220;2023-04-25T02:40:55;98989.53;;;18.85;43.40
78825;BME280;68176;45.554;10.220;2023-04-25T02:43:25;98990.75;;;18.89;43.59
78825;BME280;68176;45.554;10.220;2023-04-25T02:45:55;98982.78;;;18.83;43.45
78825;BME280;68176;45.554;10.220;2023-04-25T02:48:25;98996.06;;;18.83;43.50
78825;BME280;68176;45.554;10.220;2023-04-25T02:50:55;98977.28;;;18.71;43.39
78825;BME280;68176;45.554;10.220;2023-04-25T02:53:25;99006.91;;;18.81;43.70
78825;BME280;68176;45.554;10.220;2023-04-25T02:55:55;98989.16;;;18.69;43.77
78825;BME280;68176;45.554;10.220;2023-04-25T02:58:25;99004.66;;;18.78;43.34
78825;BME280;68176;45.554;10.220;2023-04-25T03:00:55;98988.75;;;18.72;43.62
78825;BME280;68176;45.554;10.220;2023-04-25T03:03:25;98990.34;;;18.79;43.35
78825;BME280;68176;45.554;10.220;2023-04-25T03:05:55;98994.03;;;18.78;43.51
78825;BME280;68176;45.554;10.220;2023-04-25T03:08:25;98991.59;;;18.77;43.58
78825;BME280;68176;45.554;10.220;2023-04-25T03:10:55;98997.31;;;18.80;43.53
78825;BME280;68176;45.554;10.220;2023-04-25T03:13:25;99006.69;;;18.76;43.27
78825;BME280;68176;45.554;10.220;2023-04-25T03:15:55;99008.34;;;18.77;43.49
78825;BME280;68176;45.554;10.220;2023-04-25T03:18:25;99024.06;;;18.79;43.72
78825;BME280;68176;45.554;10.220;2023-04-25T03:20:55;99027.53;;;18.79;43.60
78825;BME280;68176;45.554;10.220;2023-04-25T03:23:25;99030.41;;;18.78;43.37
78825;BME280;68176;45.554;10.220;2023-04-25T03:25:55;99037.34;;;18.79;43.63
78825;BME280;68176;45.554;10.220;2023-04-25T03:28:25;99021.03;;;18.75;43.84
78825;BME280;68176;45.554;10.220;2023-04-25T03:30:55;99022.63;;;18.76;43.98
78825;BME280;68176;45.554;10.220;2023-04-25T03:33:25;99027.94;;;18.76;43.74
78825;BME280;68176;45.554;10.220;2023-04-25T03:35:55;99007.94;;;18.67;43.99
78825;BME280;68176;45.554;10.220;2023-04-25T03:38:25;99021.44;;;18.66;44.44
78825;BME280;68176;45.554;10.220;2023-04-25T03:40:55;99030.81;;;18.68;44.21
78825;BME280;68176;45.554;10.220;2023-04-25T03:43:25;99041.03;;;18.64;44.18
78825;BME280;68176;45.554;10.220;2023-04-25T03:45:55;99060.22;;;18.67;44.13
78825;BME280;68176;45.554;10.220;2023-04-25T03:48:26;99063.09;;;18.65;44.23
78825;BME280;68176;45.554;10.220;2023-04-25T03:50:55;99077.00;;;18.67;44.20
78825;BME280;68176;45.554;10.220;2023-04-25T03:53:25;99090.47;;;18.66;44.30
78825;BME280;68176;45.554;10.220;2023-04-25T03:55:55;99097.00;;;18.63;44.40
78825;BME280;68176;45.554;10.220;2023-04-25T03:58:25;99094.34;;;18.63;44.52
78825;BME280;68176;45.554;10.220;2023-04-25T04:00:55;99094.56;;;18.61;44.29
78825;BME280;68176;45.554;10.220;2023-04-25T04:03:25;99094.97;;;18.58;44.25
78825;BME280;68176;45.554;10.220;2023-04-25T04:05:55;99089.22;;;18.55;44.40
78825;BME280;68176;45.554;10.220;2023-04-25T04:08:25;99101.09;;;18.59;44.41
78825;BME280;68176;45.554;10.220;2023-04-25T04:10:57;99102.72;;;18.60;44.74
78825;BME280;68176;45.554;10.220;2023-04-25T04:13:26;99100.47;;;18.57;44.77
78825;BME280;68176;45.554;10.220;2023-04-25T04:15:56;99103.94;;;18.57;44.56
78825;BME280;68176;45.554;10.220;2023-04-25T04:18:25;99103.50;;;18.54;45.04
78825;BME280;68176;45.554;10.220;2023-04-25T04:20:56;99114.13;;;18.54;44.86
78825;BME280;68176;45.554;10.220;2023-04-25T04:23:25;99115.19;;;18.53;44.85
78825;BME280;68176;45.554;10.220;2023-04-25T04:25:55;99117.41;;;18.49;44.90
78825;BME280;68176;45.554;10.220;2023-04-25T04:28:25;99126.00;;;18.51;44.90
78825;BME280;68176;45.554;10.220;2023-04-25T04:30:56;99119.03;;;18.50;45.04
78825;BME280;68176;45.554;10.220;2023-04-25T04:33:25;99115.72;;;18.48;45.06
78825;BME280;68176;45.554;10.220;2023-04-25T04:35:55;99106.94;;;18.48;45.11
78825;BME280;68176;45.554;10.220;2023-04-25T04:38:26;99085.50;;;18.43;45.13
78825;BME280;68176;45.554;10.220;2023-04-25T04:40:56;99081.81;;;18.44;45.21
78825;BME280;68176;45.554;10.220;2023-04-25T04:43:26;99085.50;;;18.43;45.17
78825;BME280;68176;45.554;10.220;2023-04-25T04:45:56;99093.88;;;18.40;45.34
78825;BME280;68176;45.554;10.220;2023-04-25T04:48:26;99102.22;;;18.37;45.04
78825;BME280;68176;45.554;10.220;2023-04-25T04:50:56;99124.69;;;18.41;45.34
78825;BME280;68176;45.554;10.220;2023-04-25T04:53:26;99133.69;;;18.40;45.38
78825;BME280;68176;45.554;10.220;2023-04-25T04:55:56;99124.66;;;18.34;45.14
78825;BME280;68176;45.554;10.220;2023-04-25T04:58:26;99123.25;;;18.38;44.92
78825;BME280;68176;45.554;10.220;2023-04-25T05:00:56;99129.19;;;18.34;45.26
78825;BME280;68176;45.554;10.220;2023-04-25T05:03:26;99119.56;;;18.33;45.36
78825;BME280;68176;45.554;10.220;2023-04-25T05:05:56;99122.22;;;18.33;45.31
78825;BME280;68176;45.554;10.220;2023-04-25T05:08:26;99115.28;;;18.32;44.95
78825;BME280;68176;45.554;10.220;2023-04-25T05:10:56;99103.44;;;18.28;45.17
78825;BME280;68176;45.554;10.220;2023-04-25T05:13:26;99110.34;;;18.29;45.37
78825;BME280;68176;45.554;10.220;2023-04-25T05:15:56;99107.91;;;18.27;45.29
78825;BME280;68176;45.554;10.220;2023-04-25T05:18:26;99107.91;;;18.27;45.35
78825;BME280;68176;45.554;10.220;2023-04-25T05:20:56;99096.88;;;18.24;45.43
78825;BME280;68176;45.554;10.220;2023-04-25T05:23:26;99099.13;;;18.27;45.27
78825;BME280;68176;45.554;10.220;2023-04-25T05:25:56;99088.28;;;18.22;45.39
78825;BME280;68176;45.554;10.220;2023-04-25T05:28:26;99074.81;;;18.23;45.45
78825;BME280;68176;45.554;10.220;2023-04-25T05:30:56;99072.34;;;18.22;45.52
78825;BME280;68176;45.554;10.220;2023-04-25T05:33:26;99070.72;;;18.21;45.36
78825;BME280;68176;45.554;10.220;2023-04-25T05:35:56;99066.22;;;18.15;45.51
78825;BME280;68176;45.554;10.220;2023-04-25T05:38:26;99059.66;;;18.10;45.74
78825;BME280;68176;45.554;10.220;2023-04-25T05:40:56;99064.59;;;18.13;45.74
78825;BME280;68176;45.554;10.220;2023-04-25T05:43:26;99059.66;;;18.10;45.82
78825;BME280;68176;45.554;10.220;2023-04-25T05:45:56;99060.25;;;18.06;45.59
78825;BME280;68176;45.554;10.220;2023-04-25T05:48:26;99065.59;;;18.12;45.51
78825;BME280;68176;45.554;10.220;2023-04-25T05:50:56;99064.97;;;18.10;45.80
78825;BME280;68176;45.554;10.220;2023-04-25T05:53:26;99049.03;;;18.04;45.80
78825;BME280;68176;45.554;10.220;2023-04-25T05:55:56;99053.94;;;18.07;45.85
78825;BME280;68176;45.554;10.220;2023-04-25T05:58:26;99053.53;;;18.03;45.50
78825;BME280;68176;45.554;10.220;2023-04-25T06:00:56;99069.47;;;18.10;45.68
78825;BME280;68176;45.554;10.220;2023-04-25T06:03:26;99070.06;;;18.05;45.66
78825;BME280;68176;45.554;10.220;2023-04-25T06:05:58;99066.38;;;18.06;45.70
78825;BME280;68176;45.554;10.220;2023-04-25T06:08:26;99062.13;;;18.05;45.95
78825;BME280;68176;45.554;10.220;2023-04-25T06:10:56;99062.13;;;18.05;45.65
78825;BME280;68176;45.554;10.220;2023-04-25T06:13:28;99048.22;;;18.03;45.74
78825;BME280;68176;45.554;10.220;2023-04-25T06:15:56;99056.41;;;18.08;45.77
78825;BME280;68176;45.554;10.220;2023-04-25T06:18:26;99062.31;;;18.04;45.82
78825;BME280;68176;45.554;10.220;2023-04-25T06:20:56;99066.38;;;18.06;45.66
78825;BME280;68176;45.554;10.220;2023-04-25T06:23:26;99061.47;;;18.03;46.05
78825;BME280;68176;45.554;10.220;2023-04-25T06:25:56;99044.72;;;18.03;45.82
78825;BME280;68176;45.554;10.220;2023-04-25T06:28:26;99051.69;;;18.04;45.86
78825;BME280;68176;45.554;10.220;2023-04-25T06:31:02;99034.75;;;17.98;45.72
78825;BME280;68176;45.554;10.220;2023-04-25T06:33:28;99037.38;;;17.98;45.92
78825;BME280;68176;45.554;10.220;2023-04-25T06:35:56;99042.28;;;18.01;45.89
78825;BME280;68176;45.554;10.220;2023-04-25T06:38:26;99035.59;;;18.05;45.70
78825;BME280;68176;45.554;10.220;2023-04-25T06:40:56;99044.75;;;18.09;45.53
78825;BME280;68176;45.554;10.220;2023-04-25T06:43:26;99041.09;;;18.10;45.81
78825;BME280;68176;45.554;10.220;2023-04-25T06:45:56;99043.75;;;18.10;45.77
78825;BME280;68176;45.554;10.220;2023-04-25T06:48:27;99047.41;;;18.09;45.63
78825;BME280;68176;45.554;10.220;2023-04-25T06:50:59;99045.81;;;18.08;45.42
78825;BME280;68176;45.554;10.220;2023-04-25T06:53:26;99050.72;;;18.11;45.75
78825;BME280;68176;45.554;10.220;2023-04-25T06:55:56;99054.59;;;18.09;45.57
78825;BME280;68176;45.554;10.220;2023-04-25T06:58:26;99062.16;;;18.12;45.58
78825;BME280;68176;45.554;10.220;2023-04-25T07:00:59;99045.81;;;18.08;45.39
78825;BME280;68176;45.554;10.220;2023-04-25T07:03:26;99048.44;;;18.08;45.69
78825;BME280;68176;45.554;10.220;2023-04-25T07:05:56;99039.66;;;18.01;45.67
78825;BME280;68176;45.554;10.220;2023-04-25T07:08:26;99042.31;;;18.08;45.51
78825;BME280;68176;45.554;10.220;2023-04-25T07:10:56;99033.13;;;18.04;45.46
78825;BME280;68176;45.554;10.220;2023-04-25T07:13:26;99041.06;;;18.04;45.90
78825;BME280;68176;45.554;10.220;2023-04-25T07:15:56;99041.91;;;18.04;45.83
78825;BME280;68176;45.554;10.220;2023-04-25T07:18:26;99042.50;;;18.06;45.84
78825;BME280;68176;45.554;10.220;2023-04-25T07:21:03;99040.47;;;18.02;45.72
78825;BME280;68176;45.554;10.220;2023-04-25T07:23:28;99039.44;;;17.96;45.83
78825;BME280;68176;45.554;10.220;2023-04-25T07:25:56;99045.75;;;17.95;45.90
78825;BME280;68176;45.554;10.220;2023-04-25T07:28:27;99046.19;;;17.99;46.04
78825;BME280;68176;45.554;10.220;2023-04-25T07:30:56;99054.53;;;17.96;45.90
78825;BME280;68176;45.554;10.220;2023-04-25T07:33:30;99063.91;;;17.98;45.87
78825;BME280;68176;45.554;10.220;2023-04-25T07:35:56;99059.84;;;17.96;46.06
78825;BME280;68176;45.554;10.220;2023-04-25T07:38:26;99050.63;;;17.92;45.86
78825;BME280;68176;45.554;10.220;2023-04-25T07:40:57;99057.38;;;17.94;45.91
78825;BME280;68176;45.554;10.220;2023-04-25T07:43:32;99070.22;;;17.97;45.84
78825;BME280;68176;45.554;10.220;2023-04-25T07:45:58;99069.38;;;17.90;46.02
78825;BME280;68176;45.554;10.220;2023-04-25T07:48:26;99081.63;;;17.91;45.76
78825;BME280;68176;45.554;10.220;2023-04-25T07:50:56;99086.16;;;17.97;45.95
78825;BME280;68176;45.554;10.220;2023-04-25T07:53:29;99084.13;;;17.99;45.74
78825;BME280;68176;45.554;10.220;2023-04-25T07:55:56;99079.22;;;17.96;45.80
78825;BME280;68176;45.554;10.220;2023-04-25T07:58:26;99083.50;;;17.97;46.00
78825;BME280;68176;45.554;10.220;2023-04-25T08:00:57;99080.03;;;17.97;45.74
78825;BME280;68176;45.554;10.220;2023-04-25T08:03:38;99080.88;;;18.04;45.95
78825;BME280;68176;45.554;10.220;2023-04-25T08:06:04;99084.53;;;17.96;45.85
78825;BME280;68176;45.554;10.220;2023-04-25T08:08:33;99078.59;;;17.94;45.96
78825;BME280;68176;45.554;10.220;2023-04-25T08:10:58;99101.69;;;18.00;45.85
78825;BME280;68176;45.554;10.220;2023-04-25T08:13:28;99100.66;;;18.01;45.62
78825;BME280;68176;45.554;10.220;2023-04-25T08:16:01;99103.34;;;18.08;45.41
78825;BME280;68176;45.554;10.220;2023-04-25T08:18:33;99099.25;;;18.05;45.83
78825;BME280;68176;45.554;10.220;2023-04-25T08:20:58;99115.81;;;18.07;45.63
78825;BME280;68176;45.554;10.220;2023-04-25T08:23:28;99105.75;;;18.03;45.73
78825;BME280;68176;45.554;10.220;2023-04-25T08:25:58;99112.13;;;18.08;45.41
78825;BME280;68176;45.554;10.220;2023-04-25T08:28:29;99127.66;;;18.11;45.44
78825;BME280;68176;45.554;10.220;2023-04-25T08:30:58;99120.72;;;18.10;45.47
78825;BME280;68176;45.554;10.220;2023-04-25T08:33:28;99123.97;;;18.12;45.58
78825;BME280;68176;45.554;10.220;2023-04-25T08:35:58;99127.25;;;18.15;45.55
78825;BME280;68176;45.554;10.220;2023-04-25T08:38:30;99128.50;;;18.12;45.53
78825;BME280;68176;45.554;10.220;2023-04-25T08:40:59;99125.00;;;18.11;45.39
78825;BME280;68176;45.554;10.220;2023-04-25T08:43:31;99136.22;;;18.13;45.68
78825;BME280;68176;45.554;10.220;2023-04-25T08:46:01;99133.97;;;18.10;45.39
78825;BME280;68176;45.554;10.220;2023-04-25T08:48:28;99127.44;;;18.13;45.65
78825;BME280;68176;45.554;10.220;2023-04-25T08:50:58;99130.75;;;18.15;45.18
78825;BME280;68176;45.554;10.220;2023-04-25T08:53:30;99129.28;;;18.12;45.44
78825;BME280;68176;45.554;10.220;2023-04-25T08:56:00;99125.63;;;18.13;45.42
78825;BME280;68176;45.554;10.220;2023-04-25T08:58:31;99137.47;;;18.18;45.50
78825;BME280;68176;45.554;10.220;2023-04-25T09:00:58;99138.31;;;18.18;45.47
78825;BME280;68176;45.554;10.220;2023-04-25T09:03:28;99139.31;;;18.17;45.52
78825;BME280;68176;45.554;10.220;2023-04-25T09:05:58;99140.34;;;18.23;45.31
78825;BME280;68176;45.554;10.220;2023-04-25T09:08:28;99142.00;;;18.24;45.29
78825;BME280;68176;45.554;10.220;2023-04-25T09:10:58;99139.34;;;18.24;45.06
78825;BME280;68176;45.554;10.220;2023-04-25T09:13:28;99140.78;;;18.26;45.04
78825;BME280;68176;45.554;10.220;2023-04-25T09:15:58;99135.91;;;18.30;45.00
78825;BME280;68176;45.554;10.220;2023-04-25T09:18:33;99141.81;;;18.32;45.33
78825;BME280;68176;45.554;10.220;2023-04-25T09:21:06;99143.84;;;18.30;45.03
78825;BME280;68176;45.554;10.220;2023-04-25T09:23:39;99139.34;;;18.24;45.23
78825;BME280;68176;45.554;10.220;2023-04-25T09:26:07;99132.00;;;18.26;45.25
78825;BME280;68176;45.554;10.220;2023-04-25T09:28:32;99134.03;;;18.24;45.41
78825;BME280;68176;45.554;10.220;2023-04-25T09:31:00;99138.72;;;18.28;45.39
78825;BME280;68176;45.554;10.220;2023-04-25T09:33:33;99134.03;;;18.24;45.28
78825;BME280;68176;45.554;10.220;2023-04-25T09:36:06;99142.22;;;18.29;45.07
78825;BME280;68176;45.554;10.220;2023-04-25T09:38:43;99145.09;;;18.27;45.04
78825;BME280;68176;45.554;10.220;2023-04-25T09:41:09;99145.09;;;18.27;45.33
78825;BME280;68176;45.554;10.220;2023-04-25T09:43:35;99139.53;;;18.22;45.34
78825;BME280;68176;45.554;10.220;2023-04-25T09:46:07;99148.34;;;18.29;44.86
78825;BME280;68176;45.554;10.220;2023-04-25T09:48:33;99155.50;;;18.29;45.07
78825;BME280;68176;45.554;10.220;2023-04-25T09:51:11;99158.13;;;18.29;45.16
78825;BME280;68176;45.554;10.220;2023-04-25T09:53:38;99143.00;;;18.23;45.26
78825;BME280;68176;45.554;10.220;2023-04-25T09:56:05;99153.22;;;18.26;45.39
78825;BME280;68176;45.554;10.220;2023-04-25T09:58:33;99156.13;;;18.31;45.06
78825;BME280;68176;45.554;10.220;2023-04-25T10:01:04;99141.00;;;18.31;45.13
78825;BME280;68176;45.554;10.220;2023-04-25T10:03:37;99151.63;;;18.38;45.09
78825;BME280;68176;45.554;10.220;2023-04-25T10:06:11;99143.66;;;18.31;45.13
78825;BME280;68176;45.554;10.220;2023-04-25T10:08:38;99151.59;;;18.31;45.06
78825;BME280;68176;45.554;10.220;2023-04-25T10:11:05;99141.22;;;18.36;44.96
78825;BME280;68176;45.554;10.220;2023-04-25T10:13:34;99141.84;;;18.38;45.03
78825;BME280;68176;45.554;10.220;2023-04-25T10:16:04;99134.91;;;18.44;44.92
78825;BME280;68176;45.554;10.220;2023-04-25T10:18:33;99145.94;;;18.47;45.09
78825;BME280;68176;45.554;10.220;2023-04-25T10:21:04;99150.25;;;18.48;44.78
78825;BME280;68176;45.554;10.220;2023-04-25T10:23:33;99151.31;;;18.54;44.99
78825;BME280;68176;45.554;10.220;2023-04-25T10:26:03;99150.91;;;18.57;44.67
78825;BME280;68176;45.554;10.220;2023-04-25T10:28:56;99144.00;;;18.56;44.71
78825;BME280;68176;45.554;10.220;2023-04-25T10:31:22;99152.97;;;18.55;44.81
78825;BME280;68176;45.554;10.220;2023-04-25T10:33:48;99139.63;;;18.48;44.73
78825;BME280;68176;45.554;10.220;2023-04-25T10:36:24;99158.28;;;18.61;44.87
78825;BME280;68176;45.554;10.220;2023-04-25T10:38:52;99147.25;;;18.58;44.72
78825;BME280;68176;45.554;10.220;2023-04-25T10:41:21;99150.50;;;18.60;44.90
78825;BME280;68176;45.554;10.220;2023-04-25T10:43:49;99158.28;;;18.61;44.83
78825;BME280;68176;45.554;10.220;2023-04-25T10:46:18;99150.53;;;18.67;44.56
78825;BME280;68176;45.554;10.220;2023-04-25T10:48:49;99146.66;;;18.69;44.78
78825;BME280;68176;45.554;10.220;2023-04-25T10:59:16;99146.06;;;18.80;44.92
78825;BME280;68176;45.554;10.220;2023-04-25T11:01:43;99143.81;;;18.77;44.64
78825;BME280;68176;45.554;10.220;2023-04-25T11:04:28;99137.69;;;18.77;44.72
78825;BME280;68176;45.554;10.220;2023-04-25T11:07:15;99139.34;;;18.84;44.89
78825;BME280;68176;45.554;10.220;2023-04-25T11:09:44;99137.09;;;18.81;44.69
78825;BME280;68176;45.554;10.220;2023-04-25T11:12:10;99137.69;;;18.83;45.13
78825;BME280;68176;45.554;10.220;2023-04-25T11:14:40;99127.91;;;18.90;45.09
78825;BME280;68176;45.554;10.220;2023-04-25T11:17:08;99131.78;;;18.94;44.57
78825;BME280;68176;45.554;10.220;2023-04-25T11:19:37;99127.09;;;18.96;44.91
78825;BME280;68176;45.554;10.220;2023-04-25T11:22:10;99119.13;;;18.96;45.03
78825;BME280;68176;45.554;10.220;2023-04-25T11:24:37;99116.06;;;18.99;44.89
78825;BME280;68176;45.554;10.220;2023-04-25T11:27:08;99111.75;;;18.98;44.96
78825;BME280;68176;45.554;10.220;2023-04-25T11:29:37;99112.56;;;18.99;44.88
78825;BME280;68176;45.554;10.220;2023-04-25T11:32:07;99115.66;;;18.96;44.97
78825;BME280;68176;45.554;10.220;2023-04-25T11:34:37;99104.59;;;18.99;44.81
78825;BME280;68176;45.554;10.220;2023-04-25T11:37:07;99101.53;;;19.02;44.61
78825;BME280;68176;45.554;10.220;2023-04-25T11:39:37;99098.28;;;19.06;44.83
78825;BME280;68176;45.554;10.220;2023-04-25T11:42:08;99091.94;;;19.07;44.79
78825;BME280;68176;45.554;10.220;2023-04-25T11:44:39;99087.66;;;19.06;44.86
78825;BME280;68176;45.554;10.220;2023-04-25T11:47:07;99098.28;;;19.06;44.69
78825;BME280;68176;45.554;10.220;2023-04-25T11:49:37;99094.16;;;19.10;44.41
78825;BME280;68176;45.554;10.220;2023-04-25T11:52:07;99094.81;;;19.19;44.64
78825;BME280;68176;45.554;10.220;2023-04-25T11:54:37;99095.81;;;19.25;44.36
78825;BME280;68176;45.554;10.220;2023-04-25T11:57:07;99107.47;;;19.37;44.38
78825;BME280;68176;45.554;10.220;2023-04-25T11:59:37;99115.25;;;19.38;44.61
78825;BME280;68176;45.554;10.220;2023-04-25T12:02:07;99101.94;;;19.38;44.52
78825;BME280;68176;45.554;10.220;2023-04-25T12:04:40;99100.94;;;19.46;44.47
78825;BME280;68176;45.554;10.220;2023-04-25T12:07:09;99102.56;;;19.47;44.42
78825;BME280;68176;45.554;10.220;2023-04-25T12:09:37;99101.09;;;19.51;44.66
78825;BME280;68176;45.554;10.220;2023-04-25T12:12:09;99096.22;;;19.48;44.44
78825;BME280;68176;45.554;10.220;2023-04-25T12:14:37;99095.19;;;19.49;44.51
78825;BME280;68176;45.554;10.220;2023-04-25T12:17:08;99087.81;;;19.51;44.52
78825;BME280;68176;45.554;10.220;2023-04-25T12:19:38;99088.84;;;19.50;44.62
78825;BME280;68176;45.554;10.220;2023-04-25T12:22:21;99099.91;;;19.47;44.91
78825;BME280;68176;45.554;10.220;2023-04-25T12:24:47;99097.41;;;19.39;44.52
78825;BME280;68176;45.554;10.220;2023-04-25T12:27:15;99100.91;;;19.33;44.90
78825;BME280;68176;45.554;10.220;2023-04-25T12:29:55;99101.53;;;19.28;44.91
78825;BME280;68176;45.554;10.220;2023-04-25T12:32:21;99108.88;;;19.26;45.12
78825;BME280;68176;45.554;10.220;2023-04-25T12:34:47;99106.03;;;19.21;44.97
78825;BME280;68176;45.554;10.220;2023-04-25T12:37:15;99109.28;;;19.16;45.12
78825;BME280;68176;45.554;10.220;2023-04-25T12:39:45;99112.59;;;19.18;45.34
78825;BME280;68176;45.554;10.220;2023-04-25T12:42:15;99130.56;;;19.16;45.02
78825;BME280;68176;45.554;10.220;2023-04-25T12:44:45;99132.00;;;19.12;45.16
78825;BME280;68176;45.554;10.220;2023-04-25T12:47:15;99120.34;;;19.07;45.29
78825;BME280;68176;45.554;10.220;2023-04-25T12:49:45;99122.38;;;19.05;45.51
78825;BME280;68176;45.554;10.220;2023-04-25T12:52:15;99120.56;;;18.99;45.35
78825;BME280;68176;45.554;10.220;2023-04-25T12:54:45;99133.03;;;19.05;45.34
78825;BME280;68176;45.554;10.220;2023-04-25T12:57:15;99126.69;;;18.99;45.58
78825;BME280;68176;45.554;10.220;2023-04-25T12:59:45;99136.69;;;18.97;45.46
78825;BME280;68176;45.554;10.220;2023-04-25T13:02:15;99146.72;;;18.95;45.71
78825;BME280;68176;45.554;10.220;2023-04-25T13:04:45;99162.06;;;18.93;45.41
78825;BME280;68176;45.554;10.220;2023-04-25T13:07:15;99160.41;;;18.92;45.52
78825;BME280;68176;45.554;10.220;2023-04-25T13:09:45;99164.06;;;18.91;45.67
78825;BME280;68176;45.554;10.220;2023-04-25T13:12:15;99178.41;;;18.90;45.74